Varjao, Brazil
Current Conditions -  °F | °C
As of 8:00 AM on Monday 20 Oct 2014 (Local Time) from SBGO Reporting Station
Clear Clear  
Wind Chill: 75°   Ceiling: Unl
Heat Index: 75°   Visibility: 5mi
Dew Point: 59°   Wind: 8mph
Humidity: 57%   Direction: 180°S
Pressure: 30.09"   Gusts: NA
Location:  17.05°S, 49.63°W
Report Text: SBGO 201100Z 18007KT 8000 NSC 24/15 Q1019
Loading
Personal Weather Stations






























Interactive Weather Map
Tropical Storm Tracking
New forecast layout! Learn more

10-Day Weather Forecast

Advertisements
Track Severe Weather on mobile